sensor_id;sensor_type;location;lat;lon;timestamp;P1;durP1;ratioP1;P2;durP2;ratioP2
59607;SDS011;45426;44.726;10.390;2022-10-04T13:16:59;24.73;;;13.77;;
59607;SDS011;45426;44.726;10.390;2022-10-04T13:19:42;24.70;;;13.57;;
59607;SDS011;45426;44.726;10.390;2022-10-04T13:30:41;22.88;;;13.32;;
59607;SDS011;45426;44.726;10.390;2022-10-04T13:33:27;23.88;;;16.00;;
59607;SDS011;45426;44.726;10.390;2022-10-04T13:53:37;23.77;;;13.80;;
59607;SDS011;45426;44.726;10.390;2022-10-04T14:08:04;23.88;;;13.30;;
59607;SDS011;45426;44.726;10.390;2022-10-04T14:11:00;21.27;;;12.93;;
59607;SDS011;45426;44.726;10.390;2022-10-04T14:19:11;22.23;;;13.68;;
59607;SDS011;45426;44.726;10.390;2022-10-04T14:21:48;21.05;;;12.93;;
59607;SDS011;45426;44.726;10.390;2022-10-04T14:27:17;22.30;;;13.50;;
59607;SDS011;45426;44.726;10.390;2022-10-04T14:30:05;21.45;;;13.52;;
59607;SDS011;45426;44.726;10.390;2022-10-04T14:41:33;22.75;;;14.82;;
59607;SDS011;45426;44.726;10.390;2022-10-04T14:44:27;26.83;;;14.50;;
59607;SDS011;45426;44.726;10.390;2022-10-04T14:47:38;25.73;;;14.43;;
59607;SDS011;45426;44.726;10.390;2022-10-04T14:55:26;24.10;;;14.05;;
59607;SDS011;45426;44.726;10.390;2022-10-04T15:06:01;22.48;;;13.35;;
59607;SDS011;45426;44.726;10.390;2022-10-04T15:08:40;22.00;;;13.93;;
59607;SDS011;45426;44.726;10.390;2022-10-04T15:11:30;23.98;;;13.07;;
59607;SDS011;45426;44.726;10.390;2022-10-04T15:14:18;26.67;;;14.32;;
59607;SDS011;45426;44.726;10.390;2022-10-04T15:16:54;26.48;;;13.73;;
59607;SDS011;45426;44.726;10.390;2022-10-04T15:19:27;23.20;;;12.93;;
59607;SDS011;45426;44.726;10.390;2022-10-04T15:22:04;21.52;;;12.73;;
59607;SDS011;45426;44.726;10.390;2022-10-04T15:24:44;21.88;;;13.63;;
59607;SDS011;45426;44.726;10.390;2022-10-04T15:30:02;20.63;;;12.63;;
59607;SDS011;45426;44.726;10.390;2022-10-04T15:43:41;26.48;;;14.75;;
59607;SDS011;45426;44.726;10.390;2022-10-04T15:48:51;29.35;;;14.40;;
59607;SDS011;45426;44.726;10.390;2022-10-04T15:57:23;25.10;;;14.38;;
59607;SDS011;45426;44.726;10.390;2022-10-04T16:00:05;24.15;;;14.32;;
59607;SDS011;45426;44.726;10.390;2022-10-04T16:08:23;24.20;;;14.10;;
59607;SDS011;45426;44.726;10.390;2022-10-04T16:22:10;29.33;;;16.08;;
59607;SDS011;45426;44.726;10.390;2022-10-04T16:27:38;30.58;;;16.50;;
59607;SDS011;45426;44.726;10.390;2022-10-04T16:30:12;28.85;;;16.63;;
59607;SDS011;45426;44.726;10.390;2022-10-04T16:40:37;30.33;;;17.23;;
59607;SDS011;45426;44.726;10.390;2022-10-04T16:43:24;30.10;;;17.40;;
59607;SDS011;45426;44.726;10.390;2022-10-04T16:46:04;35.65;;;18.15;;
59607;SDS011;45426;44.726;10.390;2022-10-04T16:56:28;32.15;;;17.67;;
59607;SDS011;45426;44.726;10.390;2022-10-04T17:05:02;38.08;;;18.13;;
59607;SDS011;45426;44.726;10.390;2022-10-04T17:07:32;32.00;;;18.23;;
59607;SDS011;45426;44.726;10.390;2022-10-04T17:10:16;31.08;;;17.98;;
59607;SDS011;45426;44.726;10.390;2022-10-04T17:12:59;30.88;;;18.25;;
59607;SDS011;45426;44.726;10.390;2022-10-04T17:29:42;38.85;;;23.35;;
59607;SDS011;45426;44.726;10.390;2022-10-04T17:32:43;35.10;;;19.67;;
59607;SDS011;45426;44.726;10.390;2022-10-04T17:43:58;31.80;;;18.60;;
59607;SDS011;45426;44.726;10.390;2022-10-04T17:46:54;32.72;;;20.17;;
59607;SDS011;45426;44.726;10.390;2022-10-04T17:55:57;36.88;;;24.75;;
59607;SDS011;45426;44.726;10.390;2022-10-04T17:58:37;40.42;;;25.08;;
59607;SDS011;45426;44.726;10.390;2022-10-04T18:01:10;41.20;;;25.30;;
59607;SDS011;45426;44.726;10.390;2022-10-04T18:06:55;41.85;;;25.08;;
59607;SDS011;45426;44.726;10.390;2022-10-04T18:09:11;39.47;;;25.60;;
59607;SDS011;45426;44.726;10.390;2022-10-04T18:11:58;40.42;;;25.23;;
59607;SDS011;45426;44.726;10.390;2022-10-04T18:17:04;29.02;;;17.38;;
59607;SDS011;45426;44.726;10.390;2022-10-04T18:19:47;31.20;;;17.92;;
59607;SDS011;45426;44.726;10.390;2022-10-04T18:22:24;27.83;;;16.83;;
59607;SDS011;45426;44.726;10.390;2022-10-04T18:30:30;27.42;;;16.48;;
59607;SDS011;45426;44.726;10.390;2022-10-04T18:32:57;26.92;;;17.13;;
59607;SDS011;45426;44.726;10.390;2022-10-04T18:38:35;27.08;;;16.85;;
59607;SDS011;45426;44.726;10.390;2022-10-04T18:41:01;27.95;;;16.95;;
59607;SDS011;45426;44.726;10.390;2022-10-04T18:43:49;28.38;;;17.08;;
59607;SDS011;45426;44.726;10.390;2022-10-04T18:46:24;27.58;;;17.00;;
59607;SDS011;45426;44.726;10.390;2022-10-04T18:51:25;25.17;;;16.48;;
59607;SDS011;45426;44.726;10.390;2022-10-04T19:02:48;28.60;;;16.63;;
59607;SDS011;45426;44.726;10.390;2022-10-04T19:05:21;29.00;;;18.30;;
59607;SDS011;45426;44.726;10.390;2022-10-04T19:13:39;29.00;;;17.60;;
59607;SDS011;45426;44.726;10.390;2022-10-04T19:27:09;32.20;;;18.25;;
59607;SDS011;45426;44.726;10.390;2022-10-04T19:32:39;28.27;;;17.38;;
59607;SDS011;45426;44.726;10.390;2022-10-04T19:37:45;27.88;;;17.92;;
59607;SDS011;45426;44.726;10.390;2022-10-04T19:43:13;26.30;;;17.63;;
59607;SDS011;45426;44.726;10.390;2022-10-04T19:48:34;29.27;;;17.70;;
59607;SDS011;45426;44.726;10.390;2022-10-04T19:51:25;31.35;;;18.08;;
59607;SDS011;45426;44.726;10.390;2022-10-04T19:54:06;32.75;;;18.75;;
59607;SDS011;45426;44.726;10.390;2022-10-04T19:56:37;30.00;;;18.35;;
59607;SDS011;45426;44.726;10.390;2022-10-04T19:59:16;28.73;;;17.83;;
59607;SDS011;45426;44.726;10.390;2022-10-04T20:01:46;28.25;;;17.83;;
59607;SDS011;45426;44.726;10.390;2022-10-04T20:04:15;27.02;;;17.30;;
59607;SDS011;45426;44.726;10.390;2022-10-04T20:07:01;27.48;;;16.73;;
59607;SDS011;45426;44.726;10.390;2022-10-04T20:09:31;28.80;;;17.10;;
59607;SDS011;45426;44.726;10.390;2022-10-04T20:15:13;31.10;;;17.73;;
59607;SDS011;45426;44.726;10.390;2022-10-04T20:17:42;27.17;;;16.83;;
59607;SDS011;45426;44.726;10.390;2022-10-04T20:20:09;31.70;;;17.02;;
59607;SDS011;45426;44.726;10.390;2022-10-04T20:25:27;29.85;;;18.55;;
59607;SDS011;45426;44.726;10.390;2022-10-04T20:28:07;30.02;;;17.83;;
59607;SDS011;45426;44.726;10.390;2022-10-04T20:30:56;29.25;;;17.52;;
59607;SDS011;45426;44.726;10.390;2022-10-04T20:36:05;28.70;;;17.88;;
59607;SDS011;45426;44.726;10.390;2022-10-04T20:47:21;33.85;;;19.30;;
59607;SDS011;45426;44.726;10.390;2022-10-04T20:52:42;34.75;;;19.33;;
59607;SDS011;45426;44.726;10.390;2022-10-04T20:55:17;34.25;;;20.65;;
59607;SDS011;45426;44.726;10.390;2022-10-04T20:57:45;34.65;;;20.08;;
59607;SDS011;45426;44.726;10.390;2022-10-04T21:00:22;34.85;;;20.05;;
59607;SDS011;45426;44.726;10.390;2022-10-04T21:02:50;34.35;;;21.05;;
59607;SDS011;45426;44.726;10.390;2022-10-04T21:05:34;35.42;;;21.38;;
59607;SDS011;45426;44.726;10.390;2022-10-04T21:11:04;35.83;;;21.38;;
59607;SDS011;45426;44.726;10.390;2022-10-04T21:14:03;34.92;;;21.48;;
59607;SDS011;45426;44.726;10.390;2022-10-04T21:16:39;34.85;;;21.65;;
59607;SDS011;45426;44.726;10.390;2022-10-04T21:21:54;36.70;;;22.10;;
59607;SDS011;45426;44.726;10.390;2022-10-04T21:24:33;36.42;;;21.83;;
59607;SDS011;45426;44.726;10.390;2022-10-04T21:27:08;36.75;;;21.02;;
59607;SDS011;45426;44.726;10.390;2022-10-04T21:29:35;30.33;;;19.10;;
59607;SDS011;45426;44.726;10.390;2022-10-04T21:32:02;31.90;;;19.88;;
59607;SDS011;45426;44.726;10.390;2022-10-04T21:34:28;35.80;;;21.10;;
59607;SDS011;45426;44.726;10.390;2022-10-04T21:36:53;36.40;;;21.17;;
59607;SDS011;45426;44.726;10.390;2022-10-04T21:39:18;34.50;;;20.90;;
59607;SDS011;45426;44.726;10.390;2022-10-04T21:41:44;35.05;;;20.60;;
59607;SDS011;45426;44.726;10.390;2022-10-04T21:44:10;37.28;;;21.40;;
59607;SDS011;45426;44.726;10.390;2022-10-04T21:46:36;33.00;;;21.23;;
59607;SDS011;45426;44.726;10.390;2022-10-04T21:49:04;35.17;;;20.85;;
59607;SDS011;45426;44.726;10.390;2022-10-04T21:51:30;37.47;;;21.23;;
59607;SDS011;45426;44.726;10.390;2022-10-04T21:53:59;35.58;;;21.90;;
59607;SDS011;45426;44.726;10.390;2022-10-04T21:56:28;37.03;;;22.25;;
59607;SDS011;45426;44.726;10.390;2022-10-04T21:58:54;38.70;;;22.83;;
59607;SDS011;45426;44.726;10.390;2022-10-04T22:01:19;40.50;;;24.10;;
59607;SDS011;45426;44.726;10.390;2022-10-04T22:03:45;39.63;;;23.10;;
59607;SDS011;45426;44.726;10.390;2022-10-04T22:06:10;41.85;;;23.88;;
59607;SDS011;45426;44.726;10.390;2022-10-04T22:08:36;37.10;;;22.35;;
59607;SDS011;45426;44.726;10.390;2022-10-04T22:11:01;41.30;;;22.25;;
59607;SDS011;45426;44.726;10.390;2022-10-04T22:13:26;38.90;;;22.95;;
59607;SDS011;45426;44.726;10.390;2022-10-04T22:15:52;43.65;;;23.92;;
59607;SDS011;45426;44.726;10.390;2022-10-04T22:18:17;40.22;;;25.17;;
59607;SDS011;45426;44.726;10.390;2022-10-04T22:20:43;38.67;;;24.25;;
59607;SDS011;45426;44.726;10.390;2022-10-04T22:23:18;36.65;;;23.33;;
59607;SDS011;45426;44.726;10.390;2022-10-04T22:25:46;38.78;;;23.05;;
59607;SDS011;45426;44.726;10.390;2022-10-04T22:28:20;40.53;;;22.55;;
59607;SDS011;45426;44.726;10.390;2022-10-04T22:30:50;38.55;;;22.85;;
59607;SDS011;45426;44.726;10.390;2022-10-04T22:41:28;39.35;;;24.25;;
59607;SDS011;45426;44.726;10.390;2022-10-04T22:44:03;42.08;;;24.55;;
59607;SDS011;45426;44.726;10.390;2022-10-04T22:46:36;41.67;;;24.13;;
59607;SDS011;45426;44.726;10.390;2022-10-04T22:49:12;40.38;;;23.98;;
59607;SDS011;45426;44.726;10.390;2022-10-04T22:51:39;42.67;;;23.88;;
59607;SDS011;45426;44.726;10.390;2022-10-04T22:54:14;38.78;;;23.73;;
59607;SDS011;45426;44.726;10.390;2022-10-04T22:56:42;40.08;;;23.77;;
59607;SDS011;45426;44.726;10.390;2022-10-04T22:59:08;43.05;;;24.52;;
59607;SDS011;45426;44.726;10.390;2022-10-04T23:01:35;38.42;;;24.05;;
59607;SDS011;45426;44.726;10.390;2022-10-04T23:04:00;41.45;;;24.48;;
59607;SDS011;45426;44.726;10.390;2022-10-04T23:06:26;39.67;;;23.95;;
59607;SDS011;45426;44.726;10.390;2022-10-04T23:08:51;40.42;;;24.10;;
59607;SDS011;45426;44.726;10.390;2022-10-04T23:11:17;40.08;;;23.55;;
59607;SDS011;45426;44.726;10.390;2022-10-04T23:13:42;40.05;;;23.90;;
59607;SDS011;45426;44.726;10.390;2022-10-04T23:16:18;37.53;;;23.75;;
59607;SDS011;45426;44.726;10.390;2022-10-04T23:18:46;40.25;;;23.23;;
59607;SDS011;45426;44.726;10.390;2022-10-04T23:21:21;47.22;;;24.48;;
59607;SDS011;45426;44.726;10.390;2022-10-04T23:23:48;41.90;;;23.30;;
59607;SDS011;45426;44.726;10.390;2022-10-04T23:26:35;37.10;;;22.50;;
59607;SDS011;45426;44.726;10.390;2022-10-04T23:29:06;39.92;;;23.52;;
59607;SDS011;45426;44.726;10.390;2022-10-04T23:31:44;37.42;;;22.50;;
59607;SDS011;45426;44.726;10.390;2022-10-04T23:36:59;37.70;;;22.35;;
59607;SDS011;45426;44.726;10.390;2022-10-04T23:39:27;39.67;;;23.70;;
59607;SDS011;45426;44.726;10.390;2022-10-04T23:41:56;40.30;;;23.52;;
59607;SDS011;45426;44.726;10.390;2022-10-04T23:44:23;35.00;;;21.55;;
59607;SDS011;45426;44.726;10.390;2022-10-04T23:46:54;37.42;;;22.70;;
59607;SDS011;45426;44.726;10.390;2022-10-04T23:49:20;36.45;;;22.20;;
59607;SDS011;45426;44.726;10.390;2022-10-04T23:51:46;44.25;;;22.08;;
59607;SDS011;45426;44.726;10.390;2022-10-04T23:54:17;38.10;;;22.33;;
59607;SDS011;45426;44.726;10.390;2022-10-04T23:56:45;38.13;;;22.85;;
59607;SDS011;45426;44.726;10.390;2022-10-04T23:59:15;39.28;;;21.95;;
